createdAt,value
2022-09-01T00:01:43.150Z,18.91
2022-09-01T00:04:13.908Z,18.88
2022-09-01T00:06:41.087Z,18.87
2022-09-01T00:09:12.276Z,18.82
2022-09-01T00:11:50.487Z,18.75
2022-09-01T00:14:29.439Z,18.73
2022-09-01T00:16:59.391Z,18.69
2022-09-01T00:19:26.634Z,18.67
2022-09-01T00:21:53.767Z,18.67
2022-09-01T00:24:20.408Z,18.65
2022-09-01T00:26:48.119Z,18.61
2022-09-01T00:29:16.206Z,18.62
2022-09-01T00:31:43.002Z,18.62
2022-09-01T00:34:09.928Z,18.58
2022-09-01T00:36:36.455Z,18.53
2022-09-01T00:39:05.135Z,18.48
2022-09-01T00:41:34.902Z,18.44
2022-09-01T00:44:05.666Z,18.42
2022-09-01T00:46:47.551Z,18.37
2022-09-01T00:49:35.032Z,18.35
2022-09-01T00:52:32.381Z,18.34
2022-09-01T00:55:08.509Z,18.32
2022-09-01T00:57:35.478Z,18.30
2022-09-01T01:00:18.964Z,18.25
2022-09-01T01:02:47.695Z,18.22
2022-09-01T01:05:15.577Z,18.19
2022-09-01T01:07:47.242Z,18.14
2022-09-01T01:10:15.972Z,18.11
2022-09-01T01:12:44.040Z,18.09
2022-09-01T01:15:15.242Z,18.05
2022-09-01T01:17:41.830Z,18.03
2022-09-01T01:20:30.698Z,18.00
2022-09-01T01:23:26.759Z,17.94
2022-09-01T01:25:59.987Z,17.93
2022-09-01T01:28:31.061Z,17.91
2022-09-01T01:31:06.143Z,17.87
2022-09-01T01:33:40.734Z,17.83
2022-09-01T01:36:13.427Z,17.80
2022-09-01T01:38:43.231Z,17.79
2022-09-01T01:41:11.544Z,17.76
2022-09-01T01:43:38.848Z,17.73
2022-09-01T01:46:08.256Z,17.70
2022-09-01T01:48:38.077Z,17.68
2022-09-01T01:51:05.887Z,17.66
2022-09-01T01:53:33.404Z,17.65
2022-09-01T01:56:01.002Z,17.62
2022-09-01T01:58:29.003Z,17.60
2022-09-01T02:00:56.860Z,17.60
2022-09-01T02:03:26.952Z,17.58
2022-09-01T02:05:55.042Z,17.58
2022-09-01T02:08:25.979Z,17.55
2022-09-01T02:10:55.108Z,17.52
2022-09-01T02:13:31.284Z,17.51
2022-09-01T02:16:02.528Z,17.50
2022-09-01T02:18:35.854Z,17.46
2022-09-01T02:21:07.091Z,17.45
2022-09-01T02:23:33.794Z,17.43
2022-09-01T02:26:18.059Z,17.43
2022-09-01T02:28:54.265Z,17.43
2022-09-01T02:31:23.103Z,17.41
2022-09-01T02:33:50.435Z,17.36
2022-09-01T02:36:19.451Z,17.35
2022-09-01T02:38:53.384Z,17.37
2022-09-01T02:41:25.238Z,17.36
2022-09-01T02:43:52.461Z,17.32
2022-09-01T02:46:24.328Z,17.30
2022-09-01T02:48:51.760Z,17.30
2022-09-01T02:51:21.200Z,17.31
2022-09-01T02:53:52.719Z,17.32
2022-09-01T02:56:25.041Z,17.32
2022-09-01T02:58:53.013Z,17.29
2022-09-01T03:01:30.265Z,17.23
2022-09-01T03:04:03.623Z,17.20
2022-09-01T03:06:32.509Z,17.20
2022-09-01T03:09:00.256Z,17.20
2022-09-01T03:11:29.782Z,17.19
2022-09-01T03:13:56.711Z,17.20
2022-09-01T03:16:23.479Z,17.19
2022-09-01T03:18:51.266Z,17.19
2022-09-01T03:21:18.015Z,17.18
2022-09-01T03:23:46.549Z,17.19
2022-09-01T03:26:14.487Z,17.19
2022-09-01T03:28:41.210Z,17.21
2022-09-01T03:31:08.967Z,17.19
2022-09-01T03:33:36.767Z,17.21
2022-09-01T03:36:05.087Z,17.20
2022-09-01T03:38:43.946Z,17.19
2022-09-01T03:41:13.316Z,17.15
2022-09-01T03:43:46.854Z,17.16
2022-09-01T03:46:22.448Z,17.20
2022-09-01T03:48:55.617Z,17.19
2022-09-01T03:51:23.650Z,17.21
2022-09-01T03:53:54.852Z,17.21
2022-09-01T03:56:24.730Z,17.21
2022-09-01T03:58:52.168Z,17.23
2022-09-01T04:01:19.840Z,17.27
2022-09-01T04:03:49.369Z,17.29
2022-09-01T04:06:19.355Z,17.30
2022-09-01T04:08:47.136Z,17.29
2022-09-01T04:11:18.660Z,17.27
2022-09-01T04:13:47.382Z,17.24
2022-09-01T04:16:40.855Z,17.19
2022-09-01T04:19:19.823Z,17.16
2022-09-01T04:21:50.265Z,17.13
2022-09-01T04:24:18.986Z,17.12
2022-09-01T04:26:48.684Z,17.09
2022-09-01T04:29:24.204Z,17.10
2022-09-01T04:31:53.585Z,17.13
2022-09-01T04:34:22.629Z,17.14
2022-09-01T04:36:54.362Z,17.13
2022-09-01T04:39:22.270Z,17.10
2022-09-01T04:41:50.745Z,17.06
2022-09-01T04:44:19.102Z,17.03
2022-09-01T04:46:48.303Z,16.99
2022-09-01T04:49:20.726Z,16.96
2022-09-01T04:51:53.421Z,17.06
2022-09-01T04:54:22.725Z,17.62
2022-09-01T04:56:52.806Z,18.24
2022-09-01T04:59:22.577Z,18.74
2022-09-01T05:01:50.724Z,19.23
2022-09-01T05:04:21.335Z,19.63
2022-09-01T05:06:50.565Z,19.87
2022-09-01T05:09:19.164Z,19.98
2022-09-01T05:11:46.411Z,20.13
2022-09-01T05:14:13.698Z,20.27
2022-09-01T05:16:43.923Z,20.42
2022-09-01T05:19:14.860Z,20.44
2022-09-01T05:21:45.749Z,20.46
2022-09-01T05:24:15.279Z,20.49
2022-09-01T05:26:43.750Z,20.48
2022-09-01T05:29:13.768Z,20.30
2022-09-01T05:31:42.530Z,20.25
2022-09-01T05:34:10.705Z,20.15
2022-09-01T05:36:46.302Z,19.75
2022-09-01T05:39:13.227Z,19.90
2022-09-01T05:41:41.127Z,20.10
2022-09-01T05:44:09.464Z,20.27
2022-09-01T05:46:38.670Z,20.39
2022-09-01T05:49:13.770Z,20.61
2022-09-01T05:51:45.815Z,20.70
2022-09-01T05:54:21.547Z,20.87
2022-09-01T05:56:48.922Z,21.00
2022-09-01T05:59:24.750Z,21.04
2022-09-01T06:01:53.371Z,21.15
2022-09-01T06:04:20.360Z,21.21
2022-09-01T06:07:06.095Z,21.14
2022-09-01T06:09:38.349Z,21.09
2022-09-01T06:12:05.769Z,21.00
2022-09-01T06:14:32.360Z,21.01
2022-09-01T06:16:58.960Z,20.94
2022-09-01T06:19:25.553Z,21.03
2022-09-01T06:21:53.263Z,21.14
2022-09-01T06:24:19.821Z,20.98
2022-09-01T06:26:46.845Z,20.62
2022-09-01T06:29:15.504Z,20.50
2022-09-01T06:31:43.515Z,20.73
2022-09-01T06:34:14.140Z,20.93
2022-09-01T06:36:40.802Z,21.14
2022-09-01T06:39:09.524Z,21.30
2022-09-01T06:41:38.641Z,21.42
2022-09-01T06:44:05.211Z,21.13
2022-09-01T06:46:31.970Z,21.07
2022-09-01T06:48:59.018Z,21.15
2022-09-01T06:51:30.980Z,21.27
2022-09-01T06:53:59.557Z,21.09
2022-09-01T06:56:32.282Z,21.18
2022-09-01T06:58:59.553Z,21.17
2022-09-01T07:01:27.708Z,21.27
2022-09-01T07:03:57.073Z,21.20
2022-09-01T07:09:32.098Z,21.16
2022-09-01T07:17:42.346Z,21.95
2022-09-01T07:20:26.752Z,22.06
2022-09-01T07:23:10.484Z,21.98
2022-09-01T07:26:01.054Z,21.69
2022-09-01T07:28:39.145Z,21.69
2022-09-01T07:39:49.138Z,21.33
2022-09-01T07:42:30.152Z,21.41
2022-09-01T07:45:26.445Z,21.20
2022-09-01T07:47:54.853Z,21.19
2022-09-01T07:50:39.691Z,21.43
2022-09-01T07:53:08.688Z,21.67
2022-09-01T07:55:35.446Z,21.86
2022-09-01T07:58:02.007Z,21.91
2022-09-01T08:00:31.731Z,22.08
2022-09-01T08:02:59.081Z,22.26
2022-09-01T08:05:27.262Z,22.32
2022-09-01T08:07:54.643Z,22.35
2022-09-01T08:10:22.232Z,22.25
2022-09-01T08:12:56.383Z,22.28
2022-09-01T08:15:40.977Z,22.11
2022-09-01T08:18:09.155Z,22.14
2022-09-01T08:20:39.914Z,22.41
2022-09-01T08:23:07.314Z,22.43
2022-09-01T08:25:36.392Z,22.40
2022-09-01T08:28:04.220Z,22.36
2022-09-01T08:30:35.604Z,22.09
2022-09-01T08:33:18.064Z,22.05
2022-09-01T08:35:47.984Z,22.11
2022-09-01T08:38:14.663Z,22.31
2022-09-01T08:40:43.597Z,22.50
2022-09-01T08:43:38.258Z,22.49
2022-09-01T08:46:12.303Z,22.65
2022-09-01T08:51:51.993Z,22.69
2022-09-01T08:54:47.850Z,22.85
2022-09-01T08:57:18.436Z,22.97
2022-09-01T08:59:45.081Z,23.02
2022-09-01T09:02:30.388Z,23.03
2022-09-01T09:05:23.183Z,23.13
2022-09-01T09:07:52.720Z,23.06
2022-09-01T09:10:37.412Z,22.98
2022-09-01T09:13:16.740Z,22.87
2022-09-01T09:15:52.191Z,22.97
2022-09-01T09:19:00.296Z,23.27
2022-09-01T09:21:33.720Z,23.43
2022-09-01T09:24:22.378Z,23.51
2022-09-01T09:26:55.463Z,23.64
2022-09-01T09:29:23.146Z,23.82
2022-09-01T09:32:02.930Z,23.99
2022-09-01T09:34:36.662Z,23.96
2022-09-01T09:37:24.420Z,24.14
2022-09-01T09:40:22.602Z,24.25
2022-09-01T09:42:55.344Z,24.25
2022-09-01T09:45:21.860Z,24.22
2022-09-01T09:47:49.532Z,24.05
2022-09-01T09:50:27.372Z,24.03
2022-09-01T09:53:11.315Z,24.06
2022-09-01T09:55:56.503Z,24.27
2022-09-01T09:58:36.304Z,24.35
2022-09-01T10:01:24.248Z,24.30
2022-09-01T10:03:57.591Z,24.38
2022-09-01T10:06:32.988Z,24.33
2022-09-01T10:09:02.232Z,24.34
2022-09-01T10:11:44.939Z,24.39
2022-09-01T10:14:47.973Z,24.66
2022-09-01T10:17:15.904Z,24.94
2022-09-01T10:20:12.137Z,24.86
2022-09-01T10:22:40.241Z,24.91
2022-09-01T10:25:13.168Z,24.99
2022-09-01T10:27:46.366Z,25.05
2022-09-01T10:30:19.793Z,25.02
2022-09-01T10:32:55.614Z,25.04
2022-09-01T10:35:40.603Z,25.12
2022-09-01T10:38:25.566Z,25.25
2022-09-01T10:41:14.679Z,25.28
2022-09-01T10:43:45.118Z,25.25
2022-09-01T10:46:25.905Z,25.21
2022-09-01T10:48:55.732Z,25.22
2022-09-01T10:51:28.919Z,25.06
2022-09-01T10:54:04.034Z,24.95
2022-09-01T10:56:42.941Z,25.03
2022-09-01T10:59:40.330Z,25.09
2022-09-01T11:02:27.919Z,25.12
2022-09-01T11:04:55.269Z,25.33
2022-09-01T11:07:44.353Z,25.38
2022-09-01T11:10:52.455Z,25.35
2022-09-01T11:13:34.279Z,25.32
2022-09-01T11:16:45.839Z,25.31
2022-09-01T11:19:28.924Z,25.53
2022-09-01T11:22:15.430Z,25.69
2022-09-01T11:24:42.435Z,25.83
2022-09-01T11:27:12.620Z,26.09
2022-09-01T11:29:53.551Z,26.35
2022-09-01T11:32:27.768Z,26.47
2022-09-01T11:34:57.382Z,26.35
2022-09-01T11:37:27.517Z,26.28
2022-09-01T11:40:03.792Z,26.40
2022-09-01T11:42:45.847Z,26.40
2022-09-01T11:45:24.870Z,26.55
2022-09-01T11:48:02.240Z,26.92
2022-09-01T11:50:34.937Z,27.33
2022-09-01T11:53:08.058Z,27.60
2022-09-01T11:55:40.061Z,27.80
2022-09-01T11:58:15.740Z,27.84
2022-09-01T12:00:45.130Z,27.69
2022-09-01T12:03:23.046Z,27.41
2022-09-01T12:06:00.383Z,27.12
2022-09-01T12:08:31.527Z,27.08
2022-09-01T12:11:07.302Z,27.22
2022-09-01T12:13:34.949Z,27.37
2022-09-01T12:16:20.697Z,27.50
2022-09-01T12:18:51.197Z,27.45
2022-09-01T12:21:28.623Z,27.42
2022-09-01T12:24:12.340Z,27.53
2022-09-01T12:26:39.697Z,27.75
2022-09-01T12:29:07.135Z,27.78
2022-09-01T12:31:34.484Z,27.96
2022-09-01T12:34:04.660Z,28.17
2022-09-01T12:36:36.385Z,28.32
2022-09-01T12:39:18.164Z,28.45
2022-09-01T12:41:48.583Z,28.60
2022-09-01T12:44:58.455Z,28.97
2022-09-01T12:47:33.632Z,29.03
2022-09-01T12:50:20.277Z,29.02
2022-09-01T12:52:52.424Z,29.19
2022-09-01T12:58:10.341Z,29.20
2022-09-01T13:00:55.812Z,29.27
2022-09-01T13:03:23.443Z,29.34
2022-09-01T13:05:54.860Z,29.39
2022-09-01T13:08:28.379Z,29.42
2022-09-01T13:10:58.827Z,29.42
2022-09-01T13:13:27.214Z,29.48
2022-09-01T13:15:56.689Z,29.61
2022-09-01T13:18:25.220Z,29.80
2022-09-01T13:20:53.245Z,30.09
2022-09-01T13:23:20.997Z,30.18
2022-09-01T13:25:48.196Z,30.06
2022-09-01T13:28:16.589Z,30.10
2022-09-01T13:31:28.538Z,30.21
2022-09-01T13:36:45.355Z,30.42
2022-09-01T13:39:13.490Z,30.41
2022-09-01T13:41:40.158Z,30.29
2022-09-01T13:44:10.499Z,30.13
2022-09-01T13:46:58.943Z,30.07
2022-09-01T13:52:11.206Z,31.02
2022-09-01T13:54:37.761Z,31.45
2022-09-01T13:57:04.552Z,31.79
2022-09-01T13:59:33.010Z,32.24
2022-09-01T14:02:00.992Z,32.53
2022-09-01T14:04:27.716Z,32.77
2022-09-01T14:06:55.116Z,32.78
2022-09-01T14:09:21.951Z,32.22
2022-09-01T14:11:49.169Z,31.46
2022-09-01T14:14:15.707Z,30.75
2022-09-01T14:16:42.304Z,30.32
2022-09-01T14:19:11.228Z,29.74
2022-09-01T14:21:38.867Z,29.21
2022-09-01T14:26:37.443Z,28.68
2022-09-01T14:29:04.018Z,28.61
2022-09-01T14:31:31.992Z,28.72
2022-09-01T14:33:58.658Z,29.36
2022-09-01T14:36:26.650Z,29.91
2022-09-01T14:38:54.214Z,30.76
2022-09-01T14:41:26.740Z,31.37
2022-09-01T14:43:57.646Z,31.87
2022-09-01T14:46:26.490Z,32.23
2022-09-01T14:48:53.305Z,32.30
2022-09-01T14:52:10.285Z,32.33
2022-09-01T14:54:15.397Z,32.36
2022-09-01T14:56:42.034Z,32.62
2022-09-01T14:59:09.516Z,32.70
2022-09-01T15:01:36.408Z,33.07
2022-09-01T15:04:03.605Z,33.41
2022-09-01T15:06:30.335Z,33.50
2022-09-01T15:08:56.949Z,33.65
2022-09-01T15:11:23.555Z,33.63
2022-09-01T15:13:52.202Z,33.62
2022-09-01T15:16:22.119Z,33.50
2022-09-01T15:18:48.734Z,33.45
2022-09-01T15:21:32.104Z,33.39
2022-09-01T15:23:59.440Z,33.18
2022-09-01T15:26:27.099Z,32.62
2022-09-01T15:28:53.989Z,32.27
2022-09-01T15:31:24.837Z,31.90
2022-09-01T15:34:02.793Z,31.46
2022-09-01T15:36:30.651Z,30.93
2022-09-01T15:38:58.701Z,30.36
2022-09-01T15:41:31.810Z,29.97
2022-09-01T15:43:58.991Z,29.63
2022-09-01T15:46:32.721Z,29.33
2022-09-01T15:49:01.465Z,29.17
2022-09-01T15:51:32.559Z,29.13
2022-09-01T15:54:02.955Z,29.21
2022-09-01T15:56:31.328Z,29.31
2022-09-01T15:59:01.492Z,29.41
2022-09-01T16:01:32.061Z,29.54
2022-09-01T16:03:58.734Z,29.60
2022-09-01T16:06:26.336Z,29.66
2022-09-01T16:08:54.565Z,29.75
2022-09-01T16:11:25.958Z,29.75
2022-09-01T16:13:53.952Z,29.72
2022-09-01T16:16:35.210Z,29.70
2022-09-01T16:19:15.882Z,29.63
2022-09-01T16:22:06.623Z,29.54
2022-09-01T16:24:40.883Z,29.34
2022-09-01T16:27:10.639Z,29.05
2022-09-01T16:29:55.105Z,28.85
2022-09-01T16:32:23.450Z,28.76
2022-09-01T16:34:53.734Z,28.67
2022-09-01T16:37:32.611Z,28.45
2022-09-01T16:40:13.998Z,28.30
2022-09-01T16:43:08.530Z,28.17
2022-09-01T16:45:48.866Z,28.02
2022-09-01T16:48:22.116Z,27.89
2022-09-01T16:51:03.347Z,27.75
2022-09-01T16:53:48.297Z,27.60
2022-09-01T16:56:20.771Z,27.50
2022-09-01T16:59:08.388Z,27.41
2022-09-01T17:01:49.222Z,27.26
2022-09-01T17:04:27.723Z,27.12
2022-09-01T17:07:39.861Z,26.96
2022-09-01T17:10:24.906Z,26.88
2022-09-01T17:12:56.094Z,26.84
2022-09-01T17:15:40.903Z,26.79
2022-09-01T17:18:22.465Z,26.79
2022-09-01T17:20:57.730Z,26.73
2022-09-01T17:23:28.641Z,26.73
2022-09-01T17:26:01.611Z,26.72
2022-09-01T17:28:45.230Z,26.67
2022-09-01T17:31:20.643Z,26.61
2022-09-01T17:34:02.549Z,26.61
2022-09-01T17:36:28.975Z,26.53
2022-09-01T17:39:08.314Z,26.48
2022-09-01T17:41:59.801Z,26.38
2022-09-01T17:44:56.222Z,26.27
2022-09-01T17:47:31.640Z,26.16
2022-09-01T17:49:58.162Z,26.11
2022-09-01T17:52:52.820Z,26.02
2022-09-01T17:55:19.681Z,25.92
2022-09-01T17:57:59.031Z,25.83
2022-09-01T18:00:40.093Z,25.73
2022-09-01T18:03:51.515Z,25.63
2022-09-01T18:06:35.099Z,25.56
2022-09-01T18:09:03.216Z,25.51
2022-09-01T18:12:09.778Z,25.44
2022-09-01T18:14:56.778Z,25.39
2022-09-01T18:17:32.744Z,25.32
2022-09-01T18:20:22.724Z,25.26
2022-09-01T18:23:07.962Z,25.15
2022-09-01T18:25:44.926Z,25.10
2022-09-01T18:28:13.489Z,25.07
2022-09-01T18:30:53.270Z,25.02
2022-09-01T18:33:25.910Z,25.01
2022-09-01T18:36:21.938Z,24.97
2022-09-01T18:39:01.782Z,24.95
2022-09-01T18:41:45.703Z,24.90
2022-09-01T18:44:21.400Z,24.90
2022-09-01T18:47:34.462Z,24.84
2022-09-01T18:50:07.579Z,24.82
2022-09-01T18:53:22.188Z,24.76
2022-09-01T18:56:07.230Z,24.73
2022-09-01T18:59:07.462Z,24.62
2022-09-01T19:01:37.937Z,24.57
2022-09-01T19:04:28.794Z,24.46
2022-09-01T19:07:00.395Z,24.40
2022-09-01T19:09:33.906Z,24.33
2022-09-01T19:12:19.494Z,24.26
2022-09-01T19:14:52.475Z,24.21
2022-09-01T19:17:25.153Z,24.13
2022-09-01T19:20:04.965Z,24.01
2022-09-01T19:22:45.053Z,23.91
2022-09-01T19:25:34.059Z,23.81
2022-09-01T19:28:16.024Z,23.67
2022-09-01T19:30:47.707Z,23.53
2022-09-01T19:33:20.269Z,23.49
2022-09-01T19:35:49.025Z,23.42
2022-09-01T19:38:21.357Z,23.31
2022-09-01T19:40:51.783Z,23.19
2022-09-01T19:43:21.042Z,23.10
2022-09-01T19:46:23.624Z,22.92
2022-09-01T19:48:58.256Z,22.79
2022-09-01T19:51:33.805Z,22.66
2022-09-01T19:54:13.240Z,22.54
2022-09-01T19:56:51.555Z,22.43
2022-09-01T19:59:42.387Z,22.28
2022-09-01T20:02:23.489Z,22.14
2022-09-01T20:05:00.077Z,22.01
2022-09-01T20:07:35.134Z,21.91
2022-09-01T20:10:01.677Z,21.84
2022-09-01T20:12:40.976Z,21.76
2022-09-01T20:15:24.867Z,21.68
2022-09-01T20:18:00.175Z,21.62
2022-09-01T20:20:37.755Z,21.58
2022-09-01T20:23:33.149Z,21.50
2022-09-01T20:26:04.994Z,21.48
2022-09-01T20:28:31.384Z,21.39
2022-09-01T20:31:07.651Z,21.38
2022-09-01T20:33:45.157Z,21.34
2022-09-01T20:36:17.034Z,21.27
2022-09-01T20:39:17.998Z,21.22
2022-09-01T20:41:51.931Z,21.16
2022-09-01T20:44:39.648Z,21.12
2022-09-01T20:47:07.248Z,21.10
2022-09-01T20:49:37.025Z,21.06
2022-09-01T20:52:13.987Z,21.01
2022-09-01T20:54:51.543Z,20.96
2022-09-01T20:57:41.458Z,20.93
2022-09-01T21:00:17.171Z,20.89
2022-09-01T21:02:46.790Z,20.88
2022-09-01T21:05:32.261Z,20.87
2022-09-01T21:08:29.047Z,20.82
2022-09-01T21:11:21.957Z,20.77
2022-09-01T21:13:57.320Z,20.73
2022-09-01T21:17:01.257Z,20.66
2022-09-01T21:19:39.913Z,20.62
2022-09-01T21:22:14.996Z,20.58
2022-09-01T21:24:43.725Z,20.56
2022-09-01T21:27:18.803Z,20.51
2022-09-01T21:29:54.575Z,20.46
2022-09-01T21:32:22.632Z,20.45
2022-09-01T21:34:50.576Z,20.41
2022-09-01T21:37:18.566Z,20.39
2022-09-01T21:39:45.356Z,20.37
2022-09-01T21:42:13.540Z,20.34
2022-09-01T21:44:41.280Z,20.28
2022-09-01T21:47:08.083Z,20.26
2022-09-01T21:49:34.617Z,20.24
2022-09-01T21:52:01.174Z,20.23
2022-09-01T21:54:27.688Z,20.20
2022-09-01T21:56:54.331Z,20.17
2022-09-01T21:59:21.370Z,20.15
2022-09-01T22:01:48.800Z,20.14
2022-09-01T22:04:18.305Z,20.12
2022-09-01T22:06:46.399Z,20.09
2022-09-01T22:09:21.310Z,20.05
2022-09-01T22:11:49.948Z,20.04
2022-09-01T22:14:18.313Z,20.01
2022-09-01T22:16:45.168Z,19.96
2022-09-01T22:19:11.778Z,19.91
2022-09-01T22:21:40.062Z,19.88
2022-09-01T22:24:07.564Z,19.85
2022-09-01T22:26:35.114Z,19.83
2022-09-01T22:29:04.830Z,19.78
2022-09-01T22:31:33.210Z,19.73
2022-09-01T22:34:00.878Z,19.65
2022-09-01T22:36:48.472Z,19.59
2022-09-01T22:39:16.376Z,19.57
2022-09-01T22:41:43.189Z,19.53
2022-09-01T22:44:10.428Z,19.49
2022-09-01T22:46:38.160Z,19.41
2022-09-01T22:49:06.558Z,19.37
2022-09-01T22:51:33.860Z,19.32
2022-09-01T22:54:00.587Z,19.27
2022-09-01T22:56:31.534Z,19.26
2022-09-01T22:59:01.864Z,19.23
2022-09-01T23:01:33.763Z,19.20
2022-09-01T23:04:02.099Z,19.19
2022-09-01T23:06:30.026Z,19.15
2022-09-01T23:08:58.648Z,19.15
2022-09-01T23:11:26.131Z,19.12
2022-09-01T23:13:53.659Z,19.06
2022-09-01T23:16:21.689Z,19.04
2022-09-01T23:18:49.644Z,19.02
2022-09-01T23:21:18.972Z,19.03
2022-09-01T23:23:46.181Z,19.03
2022-09-01T23:26:14.599Z,18.96
2022-09-01T23:28:43.111Z,18.93
2022-09-01T23:31:12.675Z,18.90
2022-09-01T23:33:39.697Z,18.94
2022-09-01T23:36:09.392Z,18.95
2022-09-01T23:38:37.324Z,18.93
2022-09-01T23:41:07.507Z,18.88
2022-09-01T23:43:34.175Z,18.87
2022-09-01T23:46:00.842Z,18.85
2022-09-01T23:48:28.271Z,18.87
2022-09-01T23:51:06.171Z,18.87
2022-09-01T23:53:35.342Z,18.85
2022-09-01T23:56:03.934Z,18.81
2022-09-01T23:58:31.989Z,18.80
